DERAJ36 LZDB-LZSV
Flight info
| Callsign | DERAJ36 |
|---|---|
| Flight time | 0h 46m |
| Altitude | FL110 |
| Route | NIDOK M866 BABKO M66 LIPTY R23 MEBAN PPD |
| Aircraft | BE36/L-BDFGLORY/S |
Departure
| Time | 2026-04-23 22:36 |
|---|---|
| Airport | Slávnica-Dubnica nad Váhom Airfield (LZDB) |
Arrival
| Time | 2026-04-23 23:22 |
|---|---|
| Airport | Spišská Nová Ves Airfield (LZSV) |
| Time | Latitude | Longitude | Altitude | Speed | Heading |
|---|---|---|---|---|---|
| 2026-04-23 22:01 | 48.99748 | 18.18884 | 768 ft | 0 kts | 135° |
| 2026-04-23 22:25 | 48.99729 | 18.18904 | 767 ft | 9 kts | 155° |
| 2026-04-23 22:25 | 48.99636 | 18.18919 | 767 ft | 18 kts | 180° |
| 2026-04-23 22:26 | 48.99514 | 18.18823 | 765 ft | 23 kts | 221° |
| 2026-04-23 22:26 | 48.99411 | 18.18648 | 765 ft | 16 kts | 216° |
| 2026-04-23 22:26 | 48.99377 | 18.18689 | 765 ft | 1 kts | 45° |
| 2026-04-23 22:26 | 48.99378 | 18.18690 | 765 ft | 0 kts | 44° |
| 2026-04-23 22:34 | 48.99378 | 18.18689 | 765 ft | 0 kts | 44° |
| 2026-04-23 22:34 | 48.99413 | 18.18753 | 765 ft | 29 kts | 48° |
| 2026-04-23 22:35 | 48.99652 | 18.19181 | 769 ft | 74 kts | 46° |
| 2026-04-23 22:35 | 49.00017 | 18.19865 | 807 ft | 87 kts | 47° |
| 2026-04-23 22:35 | 49.00390 | 18.20608 | 868 ft | 89 kts | 48° |
| 2026-04-23 22:35 | 49.00796 | 18.21300 | 975 ft | 93 kts | 42° |
| 2026-04-23 22:36 | 49.01230 | 18.22013 | 1138 ft | 98 kts | 43° |
| 2026-04-23 22:36 | 49.01673 | 18.22772 | 1316 ft | 103 kts | 43° |
| 2026-04-23 22:36 | 49.02136 | 18.23582 | 1543 ft | 103 kts | 44° |
| 2026-04-23 22:36 | 49.02570 | 18.24407 | 1786 ft | 104 kts | 54° |
| 2026-04-23 22:37 | 49.02822 | 18.25385 | 2043 ft | 103 kts | 62° |
| 2026-04-23 22:37 | 49.03040 | 18.26377 | 2266 ft | 102 kts | 62° |
| 2026-04-23 22:37 | 49.03260 | 18.27393 | 2482 ft | 103 kts | 61° |
| 2026-04-23 22:37 | 49.03487 | 18.28445 | 2715 ft | 102 kts | 61° |
| 2026-04-23 22:38 | 49.03699 | 18.29439 | 2955 ft | 100 kts | 59° |
| 2026-04-23 22:38 | 49.03905 | 18.30408 | 3143 ft | 99 kts | 58° |
| 2026-04-23 22:38 | 49.04122 | 18.31407 | 3337 ft | 100 kts | 57° |
| 2026-04-23 22:38 | 49.04339 | 18.32411 | 3522 ft | 101 kts | 57° |
| 2026-04-23 22:39 | 49.04561 | 18.33428 | 3725 ft | 101 kts | 58° |
| 2026-04-23 22:39 | 49.04782 | 18.34469 | 3903 ft | 102 kts | 57° |
| 2026-04-23 22:39 | 49.05004 | 18.35503 | 4088 ft | 102 kts | 58° |
| 2026-04-23 22:39 | 49.05221 | 18.36507 | 4259 ft | 103 kts | 58° |
| 2026-04-23 22:40 | 49.05432 | 18.37497 | 4438 ft | 103 kts | 58° |
| 2026-04-23 22:40 | 49.05645 | 18.38486 | 4601 ft | 104 kts | 58° |
| 2026-04-23 22:40 | 49.06072 | 18.40496 | 4933 ft | 104 kts | 58° |
| 2026-04-23 22:41 | 49.06281 | 18.41484 | 5088 ft | 105 kts | 57° |
| 2026-04-23 22:41 | 49.06488 | 18.42462 | 5252 ft | 104 kts | 58° |
| 2026-04-23 22:41 | 49.06696 | 18.43434 | 5398 ft | 105 kts | 57° |
| 2026-04-23 22:41 | 49.06918 | 18.44470 | 5557 ft | 105 kts | 57° |
| 2026-04-23 22:42 | 49.07128 | 18.45454 | 5696 ft | 106 kts | 57° |
| 2026-04-23 22:42 | 49.07340 | 18.46453 | 5842 ft | 107 kts | 57° |
| 2026-04-23 22:42 | 49.07554 | 18.47462 | 5979 ft | 108 kts | 57° |
| 2026-04-23 22:42 | 49.07786 | 18.48545 | 6123 ft | 109 kts | 58° |
| 2026-04-23 22:43 | 49.08004 | 18.49568 | 6279 ft | 109 kts | 58° |
| 2026-04-23 22:43 | 49.08207 | 18.50536 | 6421 ft | 109 kts | 57° |
| 2026-04-23 22:43 | 49.08425 | 18.51566 | 6580 ft | 108 kts | 57° |
| 2026-04-23 22:43 | 49.08652 | 18.52628 | 6720 ft | 109 kts | 58° |
| 2026-04-23 22:44 | 49.08874 | 18.53674 | 6854 ft | 110 kts | 58° |
| 2026-04-23 22:44 | 49.09090 | 18.54698 | 6993 ft | 110 kts | 58° |
| 2026-04-23 22:44 | 49.09309 | 18.55729 | 7117 ft | 111 kts | 58° |
| 2026-04-23 22:44 | 49.09528 | 18.56771 | 7247 ft | 112 kts | 57° |
| 2026-04-23 22:45 | 49.09761 | 18.57869 | 7397 ft | 111 kts | 58° |
| 2026-04-23 22:45 | 49.09979 | 18.58901 | 7523 ft | 112 kts | 58° |
| 2026-04-23 22:45 | 49.10222 | 18.60055 | 7672 ft | 112 kts | 58° |
| 2026-04-23 22:45 | 49.10451 | 18.61159 | 7895 ft | 105 kts | 57° |
| 2026-04-23 22:46 | 49.10663 | 18.62179 | 8055 ft | 102 kts | 56° |
| 2026-04-23 22:46 | 49.10872 | 18.63148 | 8198 ft | 103 kts | 56° |
| 2026-04-23 22:46 | 49.11083 | 18.64130 | 8359 ft | 103 kts | 56° |
| 2026-04-23 22:46 | 49.11293 | 18.65123 | 8550 ft | 103 kts | 57° |
| 2026-04-23 22:47 | 49.11517 | 18.66175 | 8722 ft | 105 kts | 57° |
| 2026-04-23 22:47 | 49.11726 | 18.67174 | 8906 ft | 105 kts | 57° |
| 2026-04-23 22:47 | 49.11941 | 18.68187 | 9085 ft | 105 kts | 57° |
| 2026-04-23 22:47 | 49.12151 | 18.69187 | 9257 ft | 106 kts | 57° |
| 2026-04-23 22:48 | 49.12376 | 18.70252 | 9443 ft | 107 kts | 57° |
| 2026-04-23 22:48 | 49.12591 | 18.71279 | 9627 ft | 106 kts | 57° |
| 2026-04-23 22:48 | 49.12801 | 18.72278 | 9797 ft | 106 kts | 56° |
| 2026-04-23 22:48 | 49.13012 | 18.73282 | 9970 ft | 107 kts | 57° |
| 2026-04-23 22:49 | 49.13234 | 18.74344 | 10166 ft | 106 kts | 56° |
| 2026-04-23 22:49 | 49.13460 | 18.75416 | 10342 ft | 107 kts | 57° |
| 2026-04-23 22:49 | 49.13685 | 18.76498 | 10534 ft | 107 kts | 56° |
| 2026-04-23 22:49 | 49.13912 | 18.77571 | 10724 ft | 107 kts | 57° |
| 2026-04-23 22:50 | 49.14134 | 18.78645 | 10908 ft | 107 kts | 56° |
| 2026-04-23 22:50 | 49.14379 | 18.79773 | 10986 ft | 118 kts | 57° |
| 2026-04-23 22:50 | 49.14646 | 18.81024 | 11000 ft | 131 kts | 59° |
| 2026-04-23 22:50 | 49.14934 | 18.82400 | 10998 ft | 142 kts | 60° |
| 2026-04-23 22:51 | 49.15237 | 18.83877 | 10993 ft | 149 kts | 61° |
| 2026-04-23 22:51 | 49.15549 | 18.85395 | 10988 ft | 151 kts | 62° |
| 2026-04-23 22:51 | 49.15864 | 18.86935 | 10989 ft | 154 kts | 61° |
| 2026-04-23 22:51 | 49.16191 | 18.88502 | 10989 ft | 156 kts | 62° |
| 2026-04-23 22:52 | 49.16522 | 18.90091 | 10988 ft | 157 kts | 62° |
| 2026-04-23 22:52 | 49.16853 | 18.91685 | 10985 ft | 158 kts | 62° |
| 2026-04-23 22:52 | 49.17185 | 18.93279 | 10984 ft | 159 kts | 62° |
| 2026-04-23 22:52 | 49.17259 | 18.95029 | 10984 ft | 170 kts | 83° |
| 2026-04-23 22:53 | 49.17140 | 18.96839 | 10980 ft | 171 kts | 85° |
| 2026-04-23 22:53 | 49.17012 | 18.98640 | 10981 ft | 171 kts | 85° |
| 2026-04-23 22:53 | 49.16881 | 19.00443 | 10982 ft | 172 kts | 85° |
| 2026-04-23 22:53 | 49.16752 | 19.02246 | 10984 ft | 171 kts | 85° |
| 2026-04-23 22:54 | 49.16620 | 19.04071 | 10983 ft | 171 kts | 85° |
| 2026-04-23 22:54 | 49.16499 | 19.05773 | 10981 ft | 171 kts | 85° |
| 2026-04-23 22:54 | 49.16377 | 19.07470 | 10979 ft | 171 kts | 85° |
| 2026-04-23 22:54 | 49.16258 | 19.09153 | 10978 ft | 171 kts | 85° |
| 2026-04-23 22:55 | 49.16128 | 19.10933 | 10977 ft | 171 kts | 85° |
| 2026-04-23 22:55 | 49.16005 | 19.12638 | 10973 ft | 171 kts | 85° |
| 2026-04-23 22:55 | 49.15885 | 19.14301 | 10973 ft | 171 kts | 85° |
| 2026-04-23 22:55 | 49.15765 | 19.15978 | 10974 ft | 171 kts | 84° |
| 2026-04-23 22:56 | 49.15640 | 19.17698 | 10974 ft | 171 kts | 84° |
| 2026-04-23 22:56 | 49.15515 | 19.19429 | 10972 ft | 172 kts | 84° |
| 2026-04-23 22:56 | 49.15387 | 19.21179 | 10972 ft | 172 kts | 85° |
| 2026-04-23 22:56 | 49.15202 | 19.22842 | 10968 ft | 174 kts | 89° |
| 2026-04-23 22:57 | 49.14988 | 19.24517 | 10965 ft | 174 kts | 89° |
| 2026-04-23 22:57 | 49.14756 | 19.26302 | 10963 ft | 174 kts | 89° |
| 2026-04-23 22:57 | 49.14538 | 19.27987 | 10959 ft | 174 kts | 89° |
| 2026-04-23 22:57 | 49.14323 | 19.29668 | 10960 ft | 174 kts | 89° |
| 2026-04-23 22:58 | 49.14107 | 19.31340 | 10962 ft | 174 kts | 89° |
| 2026-04-23 22:58 | 49.13876 | 19.33125 | 10959 ft | 174 kts | 89° |
| 2026-04-23 22:58 | 49.13661 | 19.34798 | 10958 ft | 174 kts | 89° |
| 2026-04-23 22:58 | 49.13445 | 19.36472 | 10959 ft | 174 kts | 89° |
| 2026-04-23 22:59 | 49.13228 | 19.38147 | 10958 ft | 174 kts | 89° |
| 2026-04-23 22:59 | 49.13000 | 19.39916 | 10958 ft | 174 kts | 89° |
| 2026-04-23 22:59 | 49.12785 | 19.41579 | 10953 ft | 174 kts | 89° |
| 2026-04-23 22:59 | 49.12569 | 19.43254 | 10948 ft | 174 kts | 89° |
| 2026-04-23 23:00 | 49.12351 | 19.44933 | 10947 ft | 174 kts | 89° |
| 2026-04-23 23:00 | 49.12129 | 19.46648 | 10951 ft | 174 kts | 89° |
| 2026-04-23 23:00 | 49.11903 | 19.48374 | 10950 ft | 174 kts | 89° |
| 2026-04-23 23:00 | 49.11686 | 19.50036 | 10945 ft | 174 kts | 89° |
| 2026-04-23 23:01 | 49.11469 | 19.51716 | 10946 ft | 175 kts | 89° |
| 2026-04-23 23:01 | 49.11250 | 19.53392 | 10948 ft | 174 kts | 89° |
| 2026-04-23 23:01 | 49.11020 | 19.55147 | 10944 ft | 175 kts | 89° |
| 2026-04-23 23:01 | 49.10803 | 19.56815 | 10942 ft | 174 kts | 89° |
| 2026-04-23 23:02 | 49.10585 | 19.58479 | 10945 ft | 174 kts | 89° |
| 2026-04-23 23:02 | 49.10366 | 19.60136 | 10943 ft | 173 kts | 89° |
| 2026-04-23 23:02 | 49.10139 | 19.61892 | 10944 ft | 172 kts | 87° |
| 2026-04-23 23:02 | 49.10033 | 19.63528 | 10941 ft | 169 kts | 81° |
| 2026-04-23 23:03 | 49.09958 | 19.65170 | 10940 ft | 169 kts | 82° |
| 2026-04-23 23:03 | 49.09879 | 19.66888 | 10939 ft | 169 kts | 82° |
| 2026-04-23 23:03 | 49.09801 | 19.68624 | 10939 ft | 169 kts | 82° |
| 2026-04-23 23:03 | 49.09725 | 19.70253 | 10938 ft | 169 kts | 82° |
| 2026-04-23 23:04 | 49.09649 | 19.71875 | 10930 ft | 169 kts | 82° |
| 2026-04-23 23:04 | 49.09572 | 19.73498 | 10932 ft | 169 kts | 82° |
| 2026-04-23 23:04 | 49.09493 | 19.75157 | 10931 ft | 169 kts | 82° |
| 2026-04-23 23:04 | 49.09411 | 19.76873 | 10933 ft | 169 kts | 82° |
| 2026-04-23 23:05 | 49.09332 | 19.78491 | 10934 ft | 169 kts | 82° |
| 2026-04-23 23:05 | 49.09255 | 19.80120 | 10936 ft | 171 kts | 82° |
| 2026-04-23 23:05 | 49.09177 | 19.81780 | 10941 ft | 175 kts | 82° |
| 2026-04-23 23:05 | 49.09091 | 19.83572 | 10932 ft | 178 kts | 82° |
| 2026-04-23 23:06 | 49.09006 | 19.85287 | 10927 ft | 180 kts | 82° |
| 2026-04-23 23:06 | 49.08918 | 19.86996 | 10988 ft | 177 kts | 82° |
| 2026-04-23 23:06 | 49.08836 | 19.88692 | 10902 ft | 181 kts | 82° |
| 2026-04-23 23:06 | 49.08747 | 19.90489 | 10726 ft | 178 kts | 83° |
| 2026-04-23 23:07 | 49.08661 | 19.92187 | 10551 ft | 174 kts | 82° |
| 2026-04-23 23:07 | 49.08578 | 19.93849 | 10380 ft | 172 kts | 82° |
| 2026-04-23 23:07 | 49.08497 | 19.95487 | 10211 ft | 170 kts | 83° |
| 2026-04-23 23:07 | 49.08416 | 19.97144 | 10042 ft | 169 kts | 82° |
| 2026-04-23 23:08 | 49.08330 | 19.98825 | 9873 ft | 168 kts | 82° |
| 2026-04-23 23:08 | 49.08252 | 20.00439 | 9706 ft | 168 kts | 82° |
| 2026-04-23 23:08 | 49.08172 | 20.02039 | 9539 ft | 168 kts | 82° |
| 2026-04-23 23:08 | 49.08091 | 20.03646 | 9369 ft | 168 kts | 83° |
| 2026-04-23 23:09 | 49.08005 | 20.05342 | 9197 ft | 167 kts | 83° |
| 2026-04-23 23:09 | 49.07923 | 20.06946 | 9035 ft | 167 kts | 83° |
| 2026-04-23 23:09 | 49.07842 | 20.08537 | 8874 ft | 167 kts | 83° |
| 2026-04-23 23:09 | 49.07762 | 20.10134 | 8710 ft | 168 kts | 83° |
| 2026-04-23 23:10 | 49.07676 | 20.11833 | 8537 ft | 167 kts | 84° |
| 2026-04-23 23:10 | 49.07594 | 20.13435 | 8376 ft | 168 kts | 84° |
| 2026-04-23 23:10 | 49.07513 | 20.15029 | 8208 ft | 168 kts | 85° |
| 2026-04-23 23:10 | 49.07430 | 20.16639 | 8039 ft | 168 kts | 85° |
| 2026-04-23 23:11 | 49.07345 | 20.18266 | 7871 ft | 168 kts | 85° |
| 2026-04-23 23:11 | 49.07254 | 20.20016 | 7692 ft | 168 kts | 85° |
| 2026-04-23 23:11 | 49.07170 | 20.21636 | 7525 ft | 167 kts | 85° |
| 2026-04-23 23:11 | 49.07087 | 20.23247 | 7356 ft | 167 kts | 85° |
| 2026-04-23 23:12 | 49.07002 | 20.24861 | 7186 ft | 167 kts | 86° |
| 2026-04-23 23:12 | 49.06911 | 20.26567 | 7007 ft | 167 kts | 85° |
| 2026-04-23 23:12 | 49.06826 | 20.28191 | 6837 ft | 168 kts | 85° |
| 2026-04-23 23:12 | 49.06740 | 20.29822 | 6669 ft | 168 kts | 85° |
| 2026-04-23 23:13 | 49.06655 | 20.31463 | 6493 ft | 169 kts | 86° |
| 2026-04-23 23:13 | 49.06562 | 20.33231 | 6303 ft | 169 kts | 86° |
| 2026-04-23 23:13 | 49.06386 | 20.34870 | 6105 ft | 177 kts | 107° |
| 2026-04-23 23:13 | 49.05740 | 20.36313 | 5942 ft | 180 kts | 125° |
| 2026-04-23 23:14 | 49.04977 | 20.37661 | 5758 ft | 181 kts | 127° |
| 2026-04-23 23:14 | 49.04182 | 20.39096 | 5564 ft | 181 kts | 121° |
| 2026-04-23 23:14 | 49.03530 | 20.40654 | 5377 ft | 180 kts | 117° |
| 2026-04-23 23:14 | 49.02916 | 20.42164 | 5190 ft | 180 kts | 117° |
| 2026-04-23 23:15 | 49.02295 | 20.43689 | 4997 ft | 179 kts | 118° |
| 2026-04-23 23:15 | 49.01668 | 20.45234 | 4812 ft | 179 kts | 118° |
| 2026-04-23 23:15 | 49.00973 | 20.46745 | 4612 ft | 178 kts | 122° |
| 2026-04-23 23:15 | 49.00289 | 20.48185 | 4436 ft | 177 kts | 124° |
| 2026-04-23 23:16 | 48.99617 | 20.49612 | 4245 ft | 174 kts | 122° |
| 2026-04-23 23:16 | 48.98949 | 20.51011 | 4067 ft | 169 kts | 121° |
| 2026-04-23 23:16 | 48.98270 | 20.52491 | 3887 ft | 164 kts | 124° |
| 2026-04-23 23:16 | 48.97677 | 20.53853 | 3724 ft | 162 kts | 122° |
| 2026-04-23 23:17 | 48.97089 | 20.55215 | 3557 ft | 159 kts | 122° |
| 2026-04-23 23:17 | 48.96417 | 20.56600 | 3390 ft | 157 kts | 124° |
| 2026-04-23 23:17 | 48.95742 | 20.57955 | 3219 ft | 155 kts | 124° |
| 2026-04-23 23:17 | 48.95100 | 20.59203 | 3058 ft | 147 kts | 126° |
| 2026-04-23 23:18 | 48.94516 | 20.60358 | 2915 ft | 131 kts | 127° |
| 2026-04-23 23:18 | 48.94000 | 20.61383 | 2811 ft | 122 kts | 128° |
| 2026-04-23 23:18 | 48.93475 | 20.62430 | 2721 ft | 117 kts | 127° |
| 2026-04-23 23:18 | 48.92989 | 20.63355 | 2654 ft | 110 kts | 137° |
| 2026-04-23 23:19 | 48.92330 | 20.63752 | 2611 ft | 99 kts | 183° |
| 2026-04-23 23:19 | 48.91737 | 20.63426 | 2561 ft | 89 kts | 226° |
| 2026-04-23 23:19 | 48.91489 | 20.62623 | 2523 ft | 80 kts | 271° |
| 2026-04-23 23:19 | 48.91590 | 20.61845 | 2470 ft | 80 kts | 291° |
| 2026-04-23 23:20 | 48.91837 | 20.61117 | 2411 ft | 83 kts | 296° |
| 2026-04-23 23:20 | 48.92099 | 20.60354 | 2342 ft | 87 kts | 296° |
| 2026-04-23 23:20 | 48.92317 | 20.59464 | 2263 ft | 92 kts | 283° |
| 2026-04-23 23:20 | 48.92485 | 20.58577 | 2173 ft | 88 kts | 284° |
| 2026-04-23 23:21 | 48.92663 | 20.57711 | 2080 ft | 90 kts | 287° |
| 2026-04-23 23:21 | 48.92989 | 20.56936 | 1982 ft | 91 kts | 294° |
| 2026-04-23 23:21 | 48.93304 | 20.56078 | 1880 ft | 92 kts | 291° |
| 2026-04-23 23:21 | 48.93529 | 20.55232 | 1791 ft | 84 kts | 284° |
| 2026-04-23 23:22 | 48.93721 | 20.54499 | 1640 ft | 71 kts | 287° |
| 2026-04-23 23:22 | 48.93905 | 20.53886 | 1607 ft | 54 kts | 294° |
| 2026-04-23 23:22 | 48.93997 | 20.53637 | 1613 ft | 7 kts | 298° |
| 2026-04-23 23:22 | 48.93966 | 20.53659 | 1613 ft | 14 kts | 124° |
| 2026-04-23 23:23 | 48.93891 | 20.53856 | 1607 ft | 24 kts | 121° |
| 2026-04-23 23:23 | 48.93799 | 20.54017 | 1603 ft | 14 kts | 141° |
| 2026-04-23 23:23 | 48.93748 | 20.54049 | 1603 ft | 0 kts | 151° |
| 2026-04-23 23:42 | 51.28272 | 30.19803 | 347 ft | 0 kts | 360° |